KBFF/BFF METAR and TAF weather

Enter ICAO airport designator
Station Type Date Time Source
KBFF METAR 2021/07/29 18:24 UTC NOAA

KBFF 291824Z AUTO 06005KT 10SM BKN016 OVC028 24/18 A3026 RMK AO2 T02440178


Station Type Date Time Source
KBFF Decoded METAR 2021/07/29 18:24 UTC NOAA

SCOTTSBLUFF HEILIG FIELD, NE, United States (KBFF) 41-52N 103-36W 1203M
Jul 29, 2021 - 02:24 PM EDT / 2021.07.29 1824 UTC
Wind: from the ENE (060 degrees) at 6 MPH (5 KT):0
Visibility: 10 mile(s):0
Sky conditions: overcast
Temperature: 75.9 F (24.4 C)
Dew Point: 64.0 F (17.8 C)
Relative Humidity: 66%
Pressure (altimeter): 30.26 in. Hg (1024 hPa)
ob: KBFF 291824Z AUTO 06005KT 10SM BKN016 OVC028 24/18 A3026 RMK AO2 T02440178
cycle: 18

Station Type Date Time Source
KBFF TAF 2021/07/29 18:22 UTC NOAA

TAF KBFF 291720Z 2918/3018 08011KT P6SM OVC015
FM292000 11015G25KT P6SM VCTS BKN060CB
FM300300 11014KT P6SM BKN080
FM301200 VRB06KT 5SM BR BKN250
FM301600 33008KT P6SM FEW250

Example: see airport list